sensor_id;sensor_type;location;lat;lon;timestamp;pressure;altitude;pressure_sealevel;temperature;humidity
7182;BME280;3632;42.724;23.298;2022-12-28T00:02:20;96323.03;;;8.58;95.07
7182;BME280;3632;42.724;23.298;2022-12-28T00:05:18;96214.59;;;7.80;95.48
7182;BME280;3632;42.724;23.298;2022-12-28T00:11:04;96410.44;;;9.03;95.99
7182;BME280;3632;42.724;23.298;2022-12-28T00:22:26;96023.06;;;6.28;97.15
7182;BME280;3632;42.724;23.298;2022-12-28T00:25:03;96380.81;;;8.70;96.85
7182;BME280;3632;42.724;23.298;2022-12-28T00:27:55;96183.22;;;7.50;96.44
7182;BME280;3632;42.724;23.298;2022-12-28T00:30:35;96327.13;;;8.45;96.16
7182;BME280;3632;42.724;23.298;2022-12-28T00:33:13;96327.63;;;8.52;95.73
7182;BME280;3632;42.724;23.298;2022-12-28T00:35:55;96399.19;;;8.44;96.44
7182;BME280;3632;42.724;23.298;2022-12-28T00:38:59;96421.81;;;8.96;96.54
7182;BME280;3632;42.724;23.298;2022-12-28T00:41:26;96432.91;;;8.95;97.07
7182;BME280;3632;42.724;23.298;2022-12-28T00:43:56;96376.09;;;8.64;97.12
7182;BME280;3632;42.724;23.298;2022-12-28T00:46:23;96365.47;;;8.08;96.63
7182;BME280;3632;42.724;23.298;2022-12-28T00:51:43;96206.81;;;7.35;97.24
7182;BME280;3632;42.724;23.298;2022-12-28T00:54:19;96443.16;;;9.09;96.86
7182;BME280;3632;42.724;23.298;2022-12-28T01:02:23;96402.22;;;8.66;97.32
7182;BME280;3632;42.724;23.298;2022-12-28T01:04:55;96436.34;;;8.78;98.17
7182;BME280;3632;42.724;23.298;2022-12-28T01:07:25;96251.78;;;7.64;98.29
7182;BME280;3632;42.724;23.298;2022-12-28T01:09:57;96444.72;;;8.96;98.68
7182;BME280;3632;42.724;23.298;2022-12-28T01:12:38;96256.00;;;7.81;97.91
7182;BME280;3632;42.724;23.298;2022-12-28T01:15:12;96345.06;;;8.42;98.06
7182;BME280;3632;42.724;23.298;2022-12-28T01:17:40;96341.00;;;8.40;97.19
7182;BME280;3632;42.724;23.298;2022-12-28T01:20:13;96444.41;;;9.02;97.90
7182;BME280;3632;42.724;23.298;2022-12-28T01:22:46;96330.56;;;7.96;98.10
7182;BME280;3632;42.724;23.298;2022-12-28T01:25:19;96394.59;;;8.66;98.32
7182;BME280;3632;42.724;23.298;2022-12-28T01:28:01;96246.13;;;7.76;98.62
7182;BME280;3632;42.724;23.298;2022-12-28T01:33:47;96176.69;;;7.29;97.76
7182;BME280;3632;42.724;23.298;2022-12-28T01:39:26;96334.88;;;8.26;97.90
7182;BME280;3632;42.724;23.298;2022-12-28T01:42:04;96355.25;;;8.42;97.23
7182;BME280;3632;42.724;23.298;2022-12-28T01:44:47;96442.34;;;8.93;97.70
7182;BME280;3632;42.724;23.298;2022-12-28T01:47:20;96183.75;;;6.72;96.82
7182;BME280;3632;42.724;23.298;2022-12-28T01:52:54;96309.63;;;8.08;96.62
7182;BME280;3632;42.724;23.298;2022-12-28T01:58:35;96415.25;;;8.60;96.65
7182;BME280;3632;42.724;23.298;2022-12-28T02:09:55;96150.06;;;6.87;96.04
7182;BME280;3632;42.724;23.298;2022-12-28T02:27:04;96336.06;;;7.71;95.53
7182;BME280;3632;42.724;23.298;2022-12-28T02:30:07;96112.88;;;5.83;95.72
7182;BME280;3632;42.724;23.298;2022-12-28T02:32:58;96119.72;;;6.00;95.75
7182;BME280;3632;42.724;23.298;2022-12-28T02:35:37;96147.16;;;6.26;95.18
7182;BME280;3632;42.724;23.298;2022-12-28T02:38:31;95907.44;;;4.53;94.10
7182;BME280;3632;42.724;23.298;2022-12-28T02:41:11;96001.53;;;5.49;94.00
7182;BME280;3632;42.724;23.298;2022-12-28T02:43:54;96169.81;;;5.93;94.55
7182;BME280;3632;42.724;23.298;2022-12-28T02:46:45;96075.59;;;5.88;94.62
7182;BME280;3632;42.724;23.298;2022-12-28T02:49:36;96402.47;;;7.96;93.92
7182;BME280;3632;42.724;23.298;2022-12-28T02:52:41;95952.41;;;5.19;91.56
7182;BME280;3632;42.724;23.298;2022-12-28T02:55:42;96006.75;;;5.46;91.16
7182;BME280;3632;42.724;23.298;2022-12-28T03:23:56;96342.22;;;8.15;84.07
7182;BME280;3632;42.724;23.298;2022-12-28T03:26:57;95977.88;;;5.33;83.04
7182;BME280;3632;42.724;23.298;2022-12-28T03:29:57;96217.41;;;7.26;82.89
7182;BME280;3632;42.724;23.298;2022-12-28T03:33:00;96417.53;;;7.99;82.52
7182;BME280;3632;42.724;23.298;2022-12-28T03:36:06;96009.75;;;5.54;83.25
7182;BME280;3632;42.724;23.298;2022-12-28T03:39:08;95943.78;;;4.68;83.09
7182;BME280;3632;42.724;23.298;2022-12-28T03:44:25;96026.69;;;5.52;82.46
7182;BME280;3632;42.724;23.298;2022-12-28T03:47:07;95969.53;;;4.57;82.71
7182;BME280;3632;42.724;23.298;2022-12-28T03:49:38;96407.00;;;7.90;84.08
7182;BME280;3632;42.724;23.298;2022-12-28T03:52:08;96062.63;;;5.40;82.79
7182;BME280;3632;42.724;23.298;2022-12-28T03:54:44;96472.72;;;7.96;82.46
7182;BME280;3632;42.724;23.298;2022-12-28T03:57:21;95848.09;;;4.26;81.75
7182;BME280;3632;42.724;23.298;2022-12-28T03:59:57;96005.41;;;5.20;80.45
7182;BME280;3632;42.724;23.298;2022-12-28T04:02:30;96142.31;;;6.22;81.45
7182;BME280;3632;42.724;23.298;2022-12-28T04:05:01;96186.28;;;6.72;81.46
7182;BME280;3632;42.724;23.298;2022-12-28T04:07:32;96208.47;;;6.50;80.21
7182;BME280;3632;42.724;23.298;2022-12-28T04:10:11;96027.41;;;5.37;79.26
7182;BME280;3632;42.724;23.298;2022-12-28T04:12:45;95917.88;;;4.65;78.57
7182;BME280;3632;42.724;23.298;2022-12-28T04:15:15;95865.16;;;4.76;77.69
7182;BME280;3632;42.724;23.298;2022-12-28T04:17:46;96384.38;;;7.85;77.35
7182;BME280;3632;42.724;23.298;2022-12-28T04:20:16;96090.75;;;5.70;76.92
7182;BME280;3632;42.724;23.298;2022-12-28T04:22:47;96200.94;;;6.31;76.42
7182;BME280;3632;42.724;23.298;2022-12-28T04:25:25;96025.63;;;5.20;77.47
7182;BME280;3632;42.724;23.298;2022-12-28T04:27:56;96045.56;;;4.89;77.45
7182;BME280;3632;42.724;23.298;2022-12-28T04:30:33;95938.88;;;4.84;76.66
7182;BME280;3632;42.724;23.298;2022-12-28T04:33:14;96403.28;;;7.45;76.25
7182;BME280;3632;42.724;23.298;2022-12-28T04:35:47;96499.88;;;7.94;76.58
7182;BME280;3632;42.724;23.298;2022-12-28T04:38:17;96095.84;;;5.51;76.16
7182;BME280;3632;42.724;23.298;2022-12-28T04:40:54;96442.53;;;8.07;74.92
7182;BME280;3632;42.724;23.298;2022-12-28T04:43:32;96132.72;;;5.74;74.58
7182;BME280;3632;42.724;23.298;2022-12-28T04:46:08;95977.25;;;5.28;74.10
7182;BME280;3632;42.724;23.298;2022-12-28T04:48:42;96463.97;;;8.18;73.95
7182;BME280;3632;42.724;23.298;2022-12-28T04:51:18;96004.25;;;4.90;72.70
7182;BME280;3632;42.724;23.298;2022-12-28T04:53:55;96142.47;;;6.19;72.86
7182;BME280;3632;42.724;23.298;2022-12-28T04:56:41;96371.72;;;7.33;72.69
7182;BME280;3632;42.724;23.298;2022-12-28T04:59:16;96152.41;;;6.05;72.25
7182;BME280;3632;42.724;23.298;2022-12-28T05:01:50;96008.34;;;5.30;71.96
7182;BME280;3632;42.724;23.298;2022-12-28T05:04:23;95982.56;;;4.86;72.13
7182;BME280;3632;42.724;23.298;2022-12-28T05:06:55;96363.91;;;7.38;72.12
7182;BME280;3632;42.724;23.298;2022-12-28T05:09:32;96035.72;;;5.75;71.07
7182;BME280;3632;42.724;23.298;2022-12-28T05:12:07;96176.59;;;6.63;71.01
7182;BME280;3632;42.724;23.298;2022-12-28T05:14:41;95989.38;;;5.02;70.50
7182;BME280;3632;42.724;23.298;2022-12-28T05:17:16;96213.88;;;6.96;70.28
7182;BME280;3632;42.724;23.298;2022-12-28T05:19:50;96006.50;;;5.15;69.34
7182;BME280;3632;42.724;23.298;2022-12-28T05:22:23;96017.06;;;5.41;70.19
7182;BME280;3632;42.724;23.298;2022-12-28T05:24:55;96290.94;;;7.43;69.64
7182;BME280;3632;42.724;23.298;2022-12-28T05:27:39;96197.25;;;6.90;68.93
7182;BME280;3632;42.724;23.298;2022-12-28T05:30:13;96150.66;;;6.41;69.33
7182;BME280;3632;42.724;23.298;2022-12-28T05:32:57;96019.91;;;5.17;69.54
7182;BME280;3632;42.724;23.298;2022-12-28T05:35:38;96513.88;;;8.37;69.49
7182;BME280;3632;42.724;23.298;2022-12-28T05:38:15;96503.47;;;8.24;70.04
7182;BME280;3632;42.724;23.298;2022-12-28T05:40:48;96005.72;;;4.95;69.64
7182;BME280;3632;42.724;23.298;2022-12-28T05:43:30;96006.53;;;4.96;69.49
7182;BME280;3632;42.724;23.298;2022-12-28T05:48:40;96561.53;;;8.14;70.32
7182;BME280;3632;42.724;23.298;2022-12-28T05:51:14;96226.47;;;6.08;70.81
7182;BME280;3632;42.724;23.298;2022-12-28T05:53:45;95939.75;;;5.01;70.70
7182;BME280;3632;42.724;23.298;2022-12-28T05:56:22;95973.06;;;4.72;71.03
7182;BME280;3632;42.724;23.298;2022-12-28T05:58:59;96529.91;;;8.20;71.37
7182;BME280;3632;42.724;23.298;2022-12-28T06:01:33;96529.47;;;8.12;71.49
7182;BME280;3632;42.724;23.298;2022-12-28T06:04:09;96214.44;;;6.49;72.55
7182;BME280;3632;42.724;23.298;2022-12-28T06:06:49;96023.25;;;4.98;71.84
7182;BME280;3632;42.724;23.298;2022-12-28T06:09:24;96038.16;;;5.59;72.31
7182;BME280;3632;42.724;23.298;2022-12-28T06:17:24;96502.06;;;8.01;75.11
7182;BME280;3632;42.724;23.298;2022-12-28T06:20:10;95986.09;;;4.63;75.57
7182;BME280;3632;42.724;23.298;2022-12-28T06:22:43;96086.81;;;5.45;75.47
7182;BME280;3632;42.724;23.298;2022-12-28T06:25:29;96125.06;;;5.57;75.33
7182;BME280;3632;42.724;23.298;2022-12-28T06:28:09;96280.94;;;7.06;75.10
7182;BME280;3632;42.724;23.298;2022-12-28T06:30:45;96246.91;;;6.58;75.58
7182;BME280;3632;42.724;23.298;2022-12-28T06:33:28;96151.00;;;6.16;75.25
7182;BME280;3632;42.724;23.298;2022-12-28T06:36:01;96166.59;;;6.26;74.53
7182;BME280;3632;42.724;23.298;2022-12-28T06:38:36;96049.00;;;5.06;74.18
7182;BME280;3632;42.724;23.298;2022-12-28T06:41:10;96488.78;;;8.13;74.36
7182;BME280;3632;42.724;23.298;2022-12-28T06:43:49;96035.22;;;4.56;74.65
7182;BME280;3632;42.724;23.298;2022-12-28T07:51:35;96540.41;;;9.45;65.97
7182;BME280;3632;42.724;23.298;2022-12-28T07:54:26;96507.56;;;9.25;66.38
7182;BME280;3632;42.724;23.298;2022-12-28T07:57:09;96502.16;;;9.15;66.78
7182;BME280;3632;42.724;23.298;2022-12-28T07:59:44;96325.13;;;7.86;66.93
7182;BME280;3632;42.724;23.298;2022-12-28T08:02:27;96341.97;;;8.04;66.94
7182;BME280;3632;42.724;23.298;2022-12-28T08:18:24;96033.31;;;5.55;67.77
7182;BME280;3632;42.724;23.298;2022-12-28T08:31:51;96085.09;;;6.19;66.72
7182;BME280;3632;42.724;23.298;2022-12-28T09:00:31;96071.06;;;5.76;67.53
7182;BME280;3632;42.724;23.298;2022-12-28T12:58:27;96238.44;;;9.02;72.57
7182;BME280;3632;42.724;23.298;2022-12-28T16:16:10;96323.38;;;8.52;86.14
7182;BME280;3632;42.724;23.298;2022-12-28T16:47:29;95986.28;;;6.04;83.73
7182;BME280;3632;42.724;23.298;2022-12-28T16:52:57;96350.22;;;8.08;84.44
7182;BME280;3632;42.724;23.298;2022-12-28T17:31:49;96378.13;;;8.25;89.72
7182;BME280;3632;42.724;23.298;2022-12-28T17:44:50;96311.19;;;7.60;90.61
7182;BME280;3632;42.724;23.298;2022-12-28T23:30:27;95812.13;;;3.25;88.14
